Licking, Indiana
Current Conditions -  °F | °C
As of 9:53 AM on Friday 24 Oct 2014 (Local Time) from KMIE Reporting Station
Scattered Clouds Scattered Clouds  
Wind Chill: 51°   Ceiling: Unl
Heat Index: 51°   Visibility: 10mi
Dew Point: 41°   Wind: 6mph
Humidity: 68%   Direction: 210°SSW
Pressure: 30.1"   Gusts: NA
Location:  40.4568°N, 85.3505°W
Report Text: KMIE 241353Z 21005KT 10SM FEW065 SCT085 11/05 A3010 RMK AO2 SLP192 T01060050
Loading
Personal Weather Stations






























Interactive Weather Map
Tropical Storm Tracking
New forecast layout! Learn more

10-Day Weather Forecast

Advertisements
Track Severe Weather on mobile